Time;durP1;ratioP1;P1;durP2;ratioP2;P2;SDS_P1;SDS_P2;PMS_P1;PMS_P2;Temp;Humidity;BMP_temperature;BMP_pressure;BME280_temperature;BME280_humidity;BME280_pressure;Samples;Min_cycle;Max_cycle;Signal;HPM_P1;HPM_P2
2023/08/23 00:01:20;;;;;;;2.85;1.30;;;;;;;24.32;52.39;101988.72;4987487;28;20280;-66
2023/08/23 00:03:46;;;;;;;3.72;1.50;;;;;;;24.32;52.55;101994.06;4986744;28;20034;-67
2023/08/23 00:06:11;;;;;;;2.67;1.23;;;;;;;24.32;52.33;101989.56;4986605;28;20030;-67
2023/08/23 00:08:36;;;;;;;2.50;1.20;;;;;;;24.31;52.47;101987.91;4987351;28;20034;-67
2023/08/23 00:11:02;;;;;;;4.53;1.37;;;;;;;24.31;52.76;101984.38;4987211;28;20042;-66
2023/08/23 00:13:27;;;;;;;2.78;1.27;;;;;;;24.30;52.68;101982.69;4986379;28;20302;-67
2023/08/23 00:15:52;;;;;;;3.33;1.40;;;;;;;24.31;52.56;101989.69;4987257;28;20026;-67
2023/08/23 00:18:17;;;;;;;2.78;1.10;;;;;;;24.29;52.40;101981.84;4987776;28;20079;-66
2023/08/23 00:20:43;;;;;;;4.32;1.45;;;;;;;24.30;52.36;101983.53;4988610;28;20034;-66
2023/08/23 00:23:08;;;;;;;2.80;1.30;;;;;;;24.29;52.21;101992.50;4988473;28;20096;-66
2023/08/23 00:25:33;;;;;;;3.63;1.10;;;;;;;24.29;52.48;101991.66;4986896;28;20035;-67
2023/08/23 00:27:59;;;;;;;3.83;1.35;;;;;;;24.28;52.55;101990.84;4987949;28;20046;-68
2023/08/23 00:30:24;;;;;;;4.43;1.30;;;;;;;24.26;52.48;101985.63;4988348;28;20038;-66
2023/08/23 00:32:49;;;;;;;2.90;1.20;;;;;;;24.26;51.97;101982.16;4987420;28;20038;-66
2023/08/23 00:35:15;;;;;;;3.77;1.37;;;;;;;24.26;52.13;101977.66;4988370;28;20422;-67
2023/08/23 00:37:40;;;;;;;3.17;1.40;;;;;;;24.25;51.93;101967.13;4987737;28;20287;-66
2023/08/23 00:40:08;;;;;;;2.38;1.15;;;;;;;24.25;52.01;101970.63;4987242;28;20027;-68
2023/08/23 00:42:34;;;;;;;3.33;1.40;;;;;;;24.25;52.04;101961.81;4987910;28;20034;-67
2023/08/23 00:44:59;;;;;;;3.93;1.20;;;;;;;24.24;52.50;101960.97;4987508;28;20049;-68
2023/08/23 00:47:24;;;;;;;2.87;1.30;;;;;;;24.24;52.14;101954.78;4987948;28;20367;-68
2023/08/23 00:49:50;;;;;;;2.72;1.20;;;;;;;24.22;51.94;101957.59;4987143;28;20280;-67
2023/08/23 00:52:16;;;;;;;2.28;0.90;;;;;;;24.23;51.91;101953.94;4986199;28;20550;-67
2023/08/23 00:54:41;;;;;;;3.13;1.20;;;;;;;24.22;51.99;101946.94;4986311;28;20085;-66
2023/08/23 00:57:07;;;;;;;2.63;1.20;;;;;;;24.22;51.83;101946.94;4986507;28;20423;-66
2023/08/23 00:59:33;;;;;;;4.20;1.23;;;;;;;24.21;52.32;101952.41;4985379;28;20084;-66
2023/08/23 01:01:58;;;;;;;5.13;1.23;;;;;;;24.23;51.96;101953.94;4986515;28;20026;-67
2023/08/23 01:04:23;;;;;;;2.70;1.38;;;;;;;24.22;51.75;101954.91;4986566;28;20042;-66
2023/08/23 01:06:49;;;;;;;3.72;1.40;;;;;;;24.22;52.15;101954.91;4987765;28;20026;-65
2023/08/23 01:09:45;;;;;;;2.38;1.00;;;;;;;24.20;52.21;101950.72;4986812;28;20035;-66
2023/08/23 01:12:22;;;;;;;2.95;1.20;;;;;;;24.19;51.83;101957.84;4987315;28;20041;-66
2023/08/23 01:14:47;;;;;;;2.85;1.00;;;;;;;24.20;51.80;101956.88;4986835;28;20101;-68
2023/08/23 01:17:15;;;;;;;3.43;1.40;;;;;;;24.19;51.89;101965.84;4987091;28;20459;-67
2023/08/23 01:19:48;;;;;;;3.05;1.00;;;;;;;24.18;51.71;101960.66;4986243;28;20291;-67
2023/08/23 01:22:18;;;;;;;2.58;1.23;;;;;;;24.17;51.92;101954.50;4984127;28;20034;-67
2023/08/23 01:24:44;;;;;;;3.55;1.33;;;;;;;24.16;51.48;101952.81;4985416;28;20022;-69
2023/08/23 01:27:09;;;;;;;2.80;1.08;;;;;;;24.17;51.67;101962.50;4985639;28;20061;-67
2023/08/23 01:29:35;;;;;;;2.83;1.10;;;;;;;24.18;51.75;101961.53;4986353;28;20034;-68
2023/08/23 01:32:16;;;;;;;2.33;1.00;;;;;;;24.16;51.72;101968.78;4986027;28;20431;-67
2023/08/23 01:34:46;;;;;;;4.00;1.38;;;;;;;24.15;51.92;101959.13;4985394;28;20026;-66
2023/08/23 01:37:12;;;;;;;2.55;1.08;;;;;;;24.16;51.46;101959.97;4987767;28;20068;-66
2023/08/23 01:39:38;;;;;;;2.42;1.08;;;;;;;24.15;51.30;101956.47;4987521;28;20037;-66
2023/08/23 01:42:05;;;;;;;2.10;0.80;;;;;;;24.15;51.46;101951.16;4987317;28;20475;-67
2023/08/23 01:44:30;;;;;;;4.47;2.28;;;;;;;24.15;51.38;101947.63;4986819;28;20026;-66
2023/08/23 01:46:55;;;;;;;4.07;1.20;;;;;;;24.15;51.33;101942.28;4987688;28;20096;-66
2023/08/23 01:49:21;;;;;;;3.33;1.30;;;;;;;24.15;51.26;101944.94;4986458;28;20034;-66
2023/08/23 01:51:46;;;;;;;3.75;1.30;;;;;;;24.11;51.38;101939.06;4985516;28;20109;-66
2023/08/23 01:54:11;;;;;;;4.32;1.50;;;;;;;24.13;51.69;101938.94;4984855;28;20039;-66
2023/08/23 01:56:36;;;;;;;3.57;1.20;;;;;;;24.12;51.55;101943.44;4986437;28;20038;-66
2023/08/23 01:59:02;;;;;;;3.95;1.30;;;;;;;24.13;51.56;101954.91;4985919;28;20299;-66
2023/08/23 02:01:27;;;;;;;6.15;1.30;;;;;;;24.11;51.12;101941.72;4984674;28;20030;-67
2023/08/23 02:03:54;;;;;;;3.38;1.20;;;;;;;24.12;51.42;101945.25;4986191;28;20030;-67
2023/08/23 02:06:19;;;;;;;4.40;1.30;;;;;;;24.11;51.49;101940.91;4988889;28;20043;-66
2023/08/23 02:08:44;;;;;;;3.17;1.10;;;;;;;24.10;51.25;101937.41;4989641;28;20030;-66
2023/08/23 02:11:10;;;;;;;4.40;1.27;;;;;;;24.10;51.42;101937.41;4989747;28;20076;-66
2023/08/23 02:13:35;;;;;;;3.95;1.25;;;;;;;24.11;51.15;101951.56;4989510;28;20030;-66
2023/08/23 02:16:00;;;;;;;5.80;1.30;;;;;;;24.11;51.13;101946.22;4989293;28;20030;-67
2023/08/23 02:18:25;;;;;;;4.22;1.20;;;;;;;24.08;51.58;101942.00;4989215;28;20080;-68
2023/08/23 02:20:58;;;;;;;3.90;1.35;;;;;;;24.07;51.01;101945.66;4989014;28;20113;-68
2023/08/23 02:23:24;;;;;;;4.70;1.35;;;;;;;24.09;51.13;101949.84;4990655;28;20031;-67
2023/08/23 02:25:49;;;;;;;3.92;1.23;;;;;;;24.08;51.13;101950.84;4990904;28;20064;-67
2023/08/23 02:28:14;;;;;;;5.07;1.30;;;;;;;24.07;51.18;101943.00;4988663;28;20057;-67
2023/08/23 02:30:40;;;;;;;3.60;1.13;;;;;;;24.07;51.50;101943.00;4989671;28;20210;-66
2023/08/23 02:33:05;;;;;;;5.50;1.90;;;;;;;24.06;51.12;101936.00;4989881;28;20042;-67
2023/08/23 02:35:31;;;;;;;3.42;1.00;;;;;;;24.07;51.53;101933.19;4990076;28;20073;-66
2023/08/23 02:37:57;;;;;;;3.97;1.27;;;;;;;24.06;51.02;101949.31;4989529;28;20108;-65
2023/08/23 02:40:23;;;;;;;6.57;1.50;;;;;;;24.07;51.02;101946.50;4989501;28;20027;-67
2023/08/23 02:42:48;;;;;;;3.13;1.20;;;;;;;24.07;51.04;101943.00;4989886;28;20037;-67
2023/08/23 02:45:13;;;;;;;7.07;1.30;;;;;;;24.06;51.33;101936.00;4989536;28;20077;-68
2023/08/23 02:47:39;;;;;;;5.32;1.30;;;;;;;24.05;50.86;101942.28;4989357;28;20026;-68
2023/08/23 02:50:04;;;;;;;4.40;1.30;;;;;;;24.05;51.30;101942.28;4990382;28;20113;-68
2023/08/23 02:52:30;;;;;;;4.45;1.58;;;;;;;24.04;51.10;101935.28;4989708;28;20034;-67
2023/08/23 02:54:55;;;;;;;6.32;1.30;;;;;;;24.03;50.94;101933.59;4988168;28;20057;-68
2023/08/23 02:57:20;;;;;;;4.10;1.40;;;;;;;24.02;51.27;101935.44;4989630;28;20487;-64
2023/08/23 02:59:46;;;;;;;5.47;1.40;;;;;;;24.03;50.74;101934.44;4989333;28;20351;-66
2023/08/23 03:02:11;;;;;;;4.90;1.30;;;;;;;24.03;51.10;101925.63;4990013;28;20088;-67
2023/08/23 03:04:36;;;;;;;6.00;1.70;;;;;;;24.03;51.08;101922.94;4989109;28;20280;-66
2023/08/23 03:07:01;;;;;;;4.50;1.30;;;;;;;24.01;50.98;101920.41;4988198;28;20073;-66
2023/08/23 03:09:27;;;;;;;3.47;1.35;;;;;;;24.02;50.57;101919.47;4988396;28;20125;-66
2023/08/23 03:11:52;;;;;;;4.88;1.60;;;;;;;24.02;50.63;101923.91;4987651;28;20469;-67
2023/08/23 03:14:17;;;;;;;4.20;1.37;;;;;;;24.02;51.15;101918.59;4987696;28;20034;-66
2023/08/23 03:16:42;;;;;;;5.68;1.52;;;;;;;24.01;50.80;101922.25;4988212;28;20311;-67
2023/08/23 03:19:08;;;;;;;5.15;1.52;;;;;;;24.01;50.85;101923.09;4988282;28;20446;-66
2023/08/23 03:21:33;;;;;;;7.13;2.03;;;;;;;24.02;50.45;101923.91;4988302;28;20037;-68
2023/08/23 03:23:58;;;;;;;4.68;1.50;;;;;;;24.00;50.85;101920.56;4989761;28;20120;-67
2023/08/23 03:26:24;;;;;;;4.63;1.27;;;;;;;23.99;50.60;101908.22;4989076;28;20091;-68
2023/08/23 03:28:49;;;;;;;5.25;1.50;;;;;;;24.00;50.44;101912.56;4988754;28;20050;-68
2023/08/23 03:31:14;;;;;;;4.20;1.20;;;;;;;23.99;50.84;101914.41;4988214;28;20034;-67
2023/08/23 03:33:40;;;;;;;6.50;1.50;;;;;;;23.99;50.40;101916.19;4988528;28;20121;-67
2023/08/23 03:36:06;;;;;;;6.22;1.70;;;;;;;23.98;50.71;101919.88;4988876;28;20027;-67
2023/08/23 03:38:31;;;;;;;5.20;1.30;;;;;;;23.98;50.32;101928.69;4988622;28;20156;-66
2023/08/23 03:40:56;;;;;;;7.57;2.35;;;;;;;23.98;50.84;101933.19;4988672;28;20487;-66
2023/08/23 03:43:22;;;;;;;6.53;1.55;;;;;;;23.97;50.71;101921.66;4989695;28;20045;-66
2023/08/23 03:45:48;;;;;;;6.25;1.70;;;;;;;23.96;50.64;101916.47;4988525;28;20471;-66
2023/08/23 03:48:14;;;;;;;4.97;1.30;;;;;;;23.95;50.68;101920.97;4988454;28;20038;-66
2023/08/23 03:50:40;;;;;;;4.82;1.45;;;;;;;23.96;50.59;101913.81;4988092;28;20042;-66
2023/08/23 03:53:05;;;;;;;5.70;1.50;;;;;;;23.96;50.48;101914.69;4987371;28;20399;-69
2023/08/23 03:55:30;;;;;;;5.60;1.55;;;;;;;23.94;50.83;101913.13;4985990;28;20507;-67
2023/08/23 03:57:55;;;;;;;5.15;1.50;;;;;;;23.94;50.36;101921.09;4986601;28;20026;-68
2023/08/23 04:00:22;;;;;;;4.55;1.70;;;;;;;23.95;50.20;101926.28;4986341;28;20459;-67
2023/08/23 04:02:47;;;;;;;4.03;1.55;;;;;;;23.92;50.63;101913.25;4987290;28;20028;-68
2023/08/23 04:05:13;;;;;;;5.03;1.40;;;;;;;23.92;50.31;101915.91;4987506;28;20038;-68
2023/08/23 04:07:39;;;;;;;5.53;1.73;;;;;;;23.93;50.52;101919.44;4988088;28;20044;-66
2023/08/23 04:10:06;;;;;;;7.60;2.30;;;;;;;23.93;50.75;101919.44;4986888;28;20506;-67
2023/08/23 04:12:31;;;;;;;6.72;1.70;;;;;;;23.92;50.26;101925.75;4987745;28;20585;-67
2023/08/23 04:14:56;;;;;;;4.90;1.33;;;;;;;23.91;50.36;101919.59;4988332;28;20038;-65
2023/08/23 04:17:23;;;;;;;4.35;1.35;;;;;;;23.90;50.34;101924.03;4987456;28;20038;-66
2023/08/23 04:19:49;;;;;;;4.55;1.65;;;;;;;23.92;50.40;101926.56;4988962;28;20045;-66
2023/08/23 04:22:14;;;;;;;6.05;1.80;;;;;;;23.90;50.76;101920.53;4988273;28;20494;-66
2023/08/23 04:24:39;;;;;;;5.03;1.60;;;;;;;23.90;50.60;101929.38;4987431;28;20038;-67
2023/08/23 04:27:05;;;;;;;5.57;1.75;;;;;;;23.91;50.65;101924.91;4987234;28;20068;-67
2023/08/23 04:29:30;;;;;;;5.00;1.70;;;;;;;23.89;50.46;101919.72;4988203;28;20487;-67
2023/08/23 04:31:55;;;;;;;4.85;1.50;;;;;;;23.90;50.71;101924.03;4987786;28;20034;-66
2023/08/23 04:34:20;;;;;;;5.93;1.65;;;;;;;23.90;50.69;101924.03;4987720;28;20069;-66
2023/08/23 04:36:46;;;;;;;4.07;1.53;;;;;;;23.90;50.71;101932.03;4988067;28;20034;-66
2023/08/23 04:39:12;;;;;;;4.68;1.63;;;;;;;23.90;50.30;101933.84;4988752;28;20736;-65
2023/08/23 04:41:37;;;;;;;3.90;1.50;;;;;;;23.89;50.22;101925.03;4987570;28;20076;-65
2023/08/23 04:44:03;;;;;;;5.05;1.50;;;;;;;23.88;50.60;101928.66;4987183;28;20121;-66
2023/08/23 04:46:28;;;;;;;4.97;1.50;;;;;;;23.88;50.31;101934.00;4987170;28;20089;-66
2023/08/23 04:48:53;;;;;;;5.90;2.53;;;;;;;23.87;50.58;101932.31;4996443;28;20046;-65
2023/08/23 04:51:22;;;;;;;6.90;2.55;;;;;;;23.88;50.60;101930.50;4992794;28;20041;-66
2023/08/23 04:53:47;;;;;;;4.63;1.83;;;;;;;23.88;50.42;101928.66;4989419;28;20038;-66
2023/08/23 04:56:13;;;;;;;5.57;1.70;;;;;;;23.87;50.77;101926.97;4989891;28;20041;-66
2023/08/23 04:58:38;;;;;;;5.43;1.80;;;;;;;23.87;50.29;101929.63;4988451;28;20054;-66
2023/08/23 05:01:05;;;;;;;3.95;1.58;;;;;;;23.88;50.41;101925.19;4985827;28;20610;-66
2023/08/23 05:03:31;;;;;;;5.88;1.92;;;;;;;23.85;50.75;101931.59;4986024;28;20056;-66
2023/08/23 05:06:00;;;;;;;4.95;1.63;;;;;;;23.86;50.66;101924.44;4986184;28;20112;-66
2023/08/23 05:08:27;;;;;;;2.88;1.25;;;;;;;23.86;50.52;101930.63;4987475;28;20471;-67
2023/08/23 05:10:54;;;;;;;4.50;1.30;;;;;;;23.86;50.30;101925.31;4987295;28;20116;-66
2023/08/23 05:13:20;;;;;;;4.72;1.50;;;;;;;23.86;50.60;101924.44;4986957;28;21070;-65
2023/08/23 05:15:56;;;;;;;4.38;1.45;;;;;;;23.85;50.83;101922.78;4986670;28;20495;-66
2023/08/23 05:18:22;;;;;;;3.70;1.42;;;;;;;23.85;50.57;101918.28;4987589;28;20034;-66
2023/08/23 05:20:53;;;;;;;3.72;1.60;;;;;;;23.85;50.37;101912.13;4986479;28;20036;-67
2023/08/23 05:23:18;;;;;;;3.60;1.30;;;;;;;23.84;50.16;101915.75;4988679;28;20066;-65
2023/08/23 05:25:43;;;;;;;4.00;1.40;;;;;;;23.85;50.36;101906.81;4988710;28;20124;-65
2023/08/23 05:28:09;;;;;;;3.63;1.20;;;;;;;23.85;50.54;101917.47;4988417;28;20280;-66
2023/08/23 05:30:37;;;;;;;3.47;1.38;;;;;;;23.84;50.35;101921.09;4988491;28;20350;-67
2023/08/23 05:33:03;;;;;;;3.33;1.20;;;;;;;23.84;50.77;101924.59;4987361;28;20035;-66
2023/08/23 05:35:28;;;;;;;2.80;1.15;;;;;;;23.86;50.35;101924.44;4986494;28;20482;-67
2023/08/23 05:37:53;;;;;;;3.50;1.50;;;;;;;23.84;50.39;101918.44;4984972;28;20485;-66
2023/08/23 05:40:18;;;;;;;3.28;1.30;;;;;;;23.83;50.77;101917.59;4988440;28;20275;-67
2023/08/23 05:42:44;;;;;;;4.25;1.40;;;;;;;23.83;50.73;101922.91;4990189;28;20027;-66
2023/08/23 05:45:09;;;;;;;5.18;1.70;;;;;;;23.87;50.27;101928.81;4989553;28;21202;-68
2023/08/23 05:47:35;;;;;;;4.07;2.42;;;;;;;23.87;49.37;101926.97;4990249;28;20561;-64
2023/08/23 05:50:00;;;;;;;5.10;1.55;;;;;;;23.90;49.74;101924.03;4989627;28;20070;-67
2023/08/23 05:52:25;;;;;;;6.13;1.67;;;;;;;23.91;49.93;101927.56;4989803;28;20041;-67
2023/08/23 05:54:50;;;;;;;4.83;1.63;;;;;;;23.91;50.40;101930.22;4988293;28;20446;-66
2023/08/23 05:57:16;;;;;;;2.90;1.30;;;;;;;23.90;50.28;101925.88;4989880;28;20263;-67
2023/08/23 05:59:41;;;;;;;4.90;1.75;;;;;;;23.89;50.45;101934.81;4989406;28;20391;-68
2023/08/23 06:02:07;;;;;;;3.97;1.50;;;;;;;23.90;50.80;101939.19;4989801;28;20061;-66
2023/08/23 06:04:32;;;;;;;4.10;1.35;;;;;;;23.88;51.19;101938.50;4989621;28;20459;-67
2023/08/23 06:06:58;;;;;;;3.72;1.50;;;;;;;23.87;51.06;101942.94;4988286;28;20521;-67
2023/08/23 06:09:23;;;;;;;3.72;1.50;;;;;;;23.87;51.07;101936.78;4988203;28;20034;-67
2023/08/23 06:11:48;;;;;;;4.47;1.50;;;;;;;23.87;51.08;101937.63;4989713;28;20041;-67
2023/08/23 06:14:26;;;;;;;4.90;1.50;;;;;;;23.88;51.37;101936.66;4990928;28;20030;-65
2023/08/23 06:16:52;;;;;;;3.17;1.42;;;;;;;23.89;51.31;101942.81;4990940;28;20045;-66
2023/08/23 06:19:17;;;;;;;4.30;1.88;;;;;;;23.87;51.27;101944.78;4989210;28;20060;-67
2023/08/23 06:21:43;;;;;;;4.03;1.70;;;;;;;23.87;51.44;101942.13;4989142;28;20082;-68
2023/08/23 06:24:09;;;;;;;3.13;1.52;;;;;;;23.86;51.52;101941.28;4988614;28;20529;-68
2023/08/23 06:26:35;;;;;;;4.28;1.55;;;;;;;23.87;51.89;101944.78;4987985;28;20046;-68
2023/08/23 06:29:00;;;;;;;4.88;1.70;;;;;;;23.88;51.72;101946.47;4988729;28;20039;-67
2023/08/23 06:31:25;;;;;;;3.78;1.52;;;;;;;23.89;52.13;101948.13;4988962;28;20030;-66
2023/08/23 06:33:51;;;;;;;4.20;1.73;;;;;;;23.88;52.15;101941.97;4988755;28;20521;-67
2023/08/23 06:36:16;;;;;;;5.70;1.70;;;;;;;23.89;52.11;101943.69;4989112;28;20499;-68
2023/08/23 06:38:42;;;;;;;5.88;1.70;;;;;;;23.90;52.34;101941.84;4989949;28;20023;-69
2023/08/23 06:41:07;;;;;;;6.43;1.65;;;;;;;23.88;52.60;101947.31;4989568;28;20087;-69
2023/08/23 06:43:32;;;;;;;7.03;1.55;;;;;;;23.88;52.16;101946.47;4989417;28;20035;-67
2023/08/23 06:45:58;;;;;;;5.10;1.60;;;;;;;23.89;52.55;101945.47;4989605;28;20037;-67
2023/08/23 06:48:23;;;;;;;3.38;1.55;;;;;;;23.90;52.20;101941.84;4989840;28;20026;-67
2023/08/23 06:50:48;;;;;;;4.97;1.60;;;;;;;23.91;52.42;101940.88;4988255;28;20138;-67
2023/08/23 06:53:14;;;;;;;6.97;1.73;;;;;;;23.93;52.24;101940.75;4988885;28;20037;-64
2023/08/23 06:55:43;;;;;;;5.30;1.80;;;;;;;23.94;52.12;101948.59;4990194;28;20525;-66
2023/08/23 06:58:08;;;;;;;5.38;1.70;;;;;;;23.93;52.45;101948.72;4989811;28;20464;-66
2023/08/23 07:00:34;;;;;;;3.75;1.63;;;;;;;23.93;52.27;101951.38;4989077;28;20038;-67
2023/08/23 07:03:01;;;;;;;6.55;1.73;;;;;;;23.96;52.65;101964.41;4989540;28;20049;-66
2023/08/23 07:05:26;;;;;;;5.18;1.70;;;;;;;23.95;52.19;101962.72;4990105;28;20046;-70
2023/08/23 07:07:51;;;;;;;4.78;1.98;;;;;;;24.06;53.40;101973.28;4986697;28;20034;-68
2023/08/23 07:10:17;;;;;;;6.18;2.05;;;;;;;24.12;52.90;101978.06;4987907;28;20034;-66
2023/08/23 07:12:42;;;;;;;4.78;1.73;;;;;;;24.18;52.84;101980.16;4988105;28;20034;-68
2023/08/23 07:15:08;;;;;;;5.47;1.70;;;;;;;24.19;52.88;101973.00;4988354;28;20141;-69
2023/08/23 07:17:34;;;;;;;5.45;1.70;;;;;;;24.16;52.98;101975.94;4988179;28;20030;-68
2023/08/23 07:20:00;;;;;;;5.60;1.70;;;;;;;24.11;52.45;101981.69;4987918;28;20085;-68
2023/08/23 07:22:25;;;;;;;4.55;1.65;;;;;;;24.07;52.36;101974.97;4987806;28;20464;-70
2023/08/23 07:24:50;;;;;;;3.70;1.63;;;;;;;24.08;52.75;101979.28;4989091;28;20125;-69
2023/08/23 07:27:16;;;;;;;4.10;1.55;;;;;;;24.04;52.84;101981.38;4988811;28;20054;-68
2023/08/23 07:29:41;;;;;;;4.65;1.70;;;;;;;24.05;52.83;101987.53;4989031;28;20069;-67
2023/08/23 07:32:06;;;;;;;4.55;1.48;;;;;;;24.01;52.74;101987.00;4987697;28;20486;-68
2023/08/23 07:34:32;;;;;;;7.18;2.00;;;;;;;24.12;52.87;101996.69;4988560;28;20422;-67
2023/08/23 07:36:57;;;;;;;4.38;1.73;;;;;;;24.18;53.06;101992.63;4989233;28;20068;-68
2023/08/23 07:39:24;;;;;;;4.75;1.63;;;;;;;24.21;52.78;101982.56;4988410;28;20058;-69
2023/08/23 07:41:50;;;;;;;3.50;1.50;;;;;;;24.17;52.70;101989.13;4988914;28;20027;-68
2023/08/23 07:44:15;;;;;;;7.03;1.70;;;;;;;24.17;52.67;102001.59;4988959;28;20022;-68
2023/08/23 07:46:41;;;;;;;3.88;1.67;;;;;;;24.22;52.75;101997.53;4988799;28;20896;-68
2023/08/23 07:49:06;;;;;;;3.67;1.50;;;;;;;24.24;52.80;101998.25;4988913;28;20041;-69
2023/08/23 07:51:32;;;;;;;5.05;1.58;;;;;;;24.26;52.83;102000.78;4986996;28;20763;-69
2023/08/23 07:53:57;;;;;;;7.20;2.00;;;;;;;24.24;52.58;102000.06;4986254;28;20474;-69
2023/08/23 07:56:23;;;;;;;4.25;1.73;;;;;;;24.24;52.73;101997.41;4987032;28;20111;-68
2023/08/23 07:58:48;;;;;;;3.65;1.70;;;;;;;24.27;52.64;101999.78;4987684;28;20038;-69
2023/08/23 08:01:14;;;;;;;6.60;1.83;;;;;;;24.27;52.56;101987.34;4986465;28;20041;-70
2023/08/23 08:03:39;;;;;;;5.25;1.92;;;;;;;24.29;52.82;101997.00;4986390;28;20529;-68
2023/08/23 08:06:05;;;;;;;5.30;1.60;;;;;;;24.31;52.41;101995.03;4987792;28;20133;-69
2023/08/23 08:08:30;;;;;;;6.55;1.67;;;;;;;24.32;52.75;101992.22;4985344;28;20030;-69
2023/08/23 08:10:56;;;;;;;8.02;2.00;;;;;;;24.37;53.02;101991.81;4986628;28;20030;-67
2023/08/23 08:13:21;;;;;;;5.15;1.60;;;;;;;24.38;52.62;101996.16;4987253;28;20042;-68
2023/08/23 08:15:47;;;;;;;4.95;1.70;;;;;;;24.39;52.73;101984.53;4988092;28;20066;-68
2023/08/23 08:18:12;;;;;;;3.75;1.67;;;;;;;24.41;52.73;101994.06;4988793;28;20081;-68
2023/08/23 08:20:37;;;;;;;4.75;1.60;;;;;;;24.39;52.62;102000.53;4987714;28;20052;-68
2023/08/23 08:23:03;;;;;;;7.93;1.63;;;;;;;24.39;52.68;101998.69;4988140;28;20042;-68
2023/08/23 08:25:28;;;;;;;6.18;1.67;;;;;;;24.41;52.61;101993.22;4987368;28;20030;-69
2023/08/23 08:27:55;;;;;;;3.88;1.35;;;;;;;24.41;52.73;101996.72;4987468;28;20471;-71
2023/08/23 08:30:20;;;;;;;4.75;1.55;;;;;;;24.44;52.40;101993.78;5000866;28;20022;-71
2023/08/23 08:32:46;;;;;;;4.00;1.40;;;;;;;24.44;52.37;101991.13;4985352;28;20038;-69
2023/08/23 08:35:11;;;;;;;5.03;1.60;;;;;;;24.41;52.68;101982.56;4984693;28;20159;-68
2023/08/23 08:37:37;;;;;;;3.13;1.58;;;;;;;24.42;52.48;101987.75;4985837;28;20057;-67
2023/08/23 08:40:03;;;;;;;4.57;1.58;;;;;;;24.41;52.78;101983.41;4986539;28;20022;-68
2023/08/23 08:42:29;;;;;;;3.38;1.20;;;;;;;24.42;52.21;101985.09;4985226;28;20030;-68
2023/08/23 08:44:55;;;;;;;5.68;1.52;;;;;;;24.46;52.24;101980.31;4985247;28;20133;-69
2023/08/23 08:47:23;;;;;;;3.78;1.40;;;;;;;24.42;52.35;101982.44;4985984;28;20027;-67
2023/08/23 08:49:48;;;;;;;3.90;1.50;;;;;;;24.43;52.74;101983.25;4986707;28;20475;-67
2023/08/23 08:52:15;;;;;;;4.45;1.40;;;;;;;24.41;52.38;101983.41;4986840;28;20034;-67
2023/08/23 08:54:43;;;;;;;4.72;1.50;;;;;;;24.43;52.79;101985.94;4986220;28;20113;-67
2023/08/23 08:57:12;;;;;;;4.35;1.80;;;;;;;24.43;52.39;101984.13;4985527;28;20056;-67
2023/08/23 08:59:41;;;;;;;3.25;1.50;;;;;;;24.41;52.42;101978.06;4985799;28;20045;-68
2023/08/23 09:02:11;;;;;;;3.38;1.30;;;;;;;24.44;52.45;101985.78;4985610;28;20030;-69
2023/08/23 09:04:38;;;;;;;6.80;1.30;;;;;;;24.48;52.36;101982.84;4986022;28;20030;-69
2023/08/23 09:07:04;;;;;;;3.42;1.40;;;;;;;24.48;52.64;101986.34;4985593;28;20711;-68
2023/08/23 09:09:30;;;;;;;4.68;1.70;;;;;;;24.46;52.40;101988.31;4986328;28;20041;-66
2023/08/23 09:11:55;;;;;;;6.28;1.42;;;;;;;24.47;52.31;101982.03;4985589;28;20030;-67
2023/08/23 09:14:20;;;;;;;4.03;1.50;;;;;;;24.49;52.28;101984.53;4985799;28;20026;-68
2023/08/23 09:16:49;;;;;;;4.90;1.30;;;;;;;24.49;52.50;101982.72;4986119;28;20030;-69
2023/08/23 09:19:15;;;;;;;5.35;1.60;;;;;;;24.49;52.95;101982.72;4985505;28;20042;-69
2023/08/23 09:21:49;;;;;;;4.95;1.67;;;;;;;24.48;52.57;101983.69;4985353;28;20035;-70
2023/08/23 09:24:15;;;;;;;9.73;1.63;;;;;;;24.52;52.53;101987.75;4985634;28;20116;-68
2023/08/23 09:26:41;;;;;;;4.47;1.60;;;;;;;24.51;52.56;101979.91;4984851;28;20050;-68
2023/08/23 09:29:07;;;;;;;4.15;1.40;;;;;;;24.52;52.70;101982.44;4985420;28;20034;-68
2023/08/23 09:31:32;;;;;;;5.10;1.33;;;;;;;24.51;52.66;101986.06;4984144;28;20116;-69
2023/08/23 09:33:58;;;;;;;4.18;1.50;;;;;;;24.53;52.79;101996.59;4985323;28;20038;-68
2023/08/23 09:36:28;;;;;;;3.38;1.17;;;;;;;24.52;52.63;101990.44;4985403;28;20133;-69
2023/08/23 09:38:54;;;;;;;5.88;1.45;;;;;;;24.55;52.58;101991.97;4985611;28;20474;-68
2023/08/23 09:41:22;;;;;;;4.70;2.00;;;;;;;24.54;52.57;101993.78;4987494;28;20034;-69
2023/08/23 09:43:52;;;;;;;6.10;1.70;;;;;;;24.53;52.76;101994.78;4986360;28;20026;-69
2023/08/23 09:46:22;;;;;;;5.47;1.77;;;;;;;24.52;52.67;101981.59;4986561;28;20118;-69
2023/08/23 09:48:49;;;;;;;4.63;1.63;;;;;;;24.54;52.64;101980.47;4986092;28;20042;-71
2023/08/23 09:51:15;;;;;;;6.55;1.73;;;;;;;24.54;52.51;101982.28;4986743;28;20037;-71
2023/08/23 09:53:45;;;;;;;5.93;1.50;;;;;;;24.53;52.93;101975.28;4987125;28;20410;-68
2023/08/23 09:56:11;;;;;;;4.47;1.45;;;;;;;24.51;52.88;101979.91;4983935;28;20510;-68
2023/08/23 09:58:38;;;;;;;7.82;1.55;;;;;;;24.54;52.77;101980.47;4987087;28;20117;-68
2023/08/23 10:01:04;;;;;;;4.90;1.60;;;;;;;24.51;53.33;101975.41;4986050;28;20058;-69
2023/08/23 10:03:30;;;;;;;5.25;1.50;;;;;;;24.51;53.40;101975.41;4985990;28;20092;-69
2023/08/23 10:05:55;;;;;;;4.75;1.65;;;;;;;24.51;53.13;101987.91;4985902;28;20513;-68
2023/08/23 10:08:23;;;;;;;6.70;2.00;;;;;;;24.53;52.71;101980.59;4986293;28;20043;-70
2023/08/23 10:10:50;;;;;;;6.63;2.60;;;;;;;24.51;52.10;101985.25;4986451;28;20039;-69
2023/08/23 10:13:18;;;;;;;4.68;1.90;;;;;;;24.52;52.62;101978.94;4986265;28;20046;-67
2023/08/23 10:15:44;;;;;;;5.72;1.65;;;;;;;24.48;52.86;101982.84;4987005;28;20030;-68
2023/08/23 10:18:12;;;;;;;4.22;1.90;;;;;;;24.50;53.21;101976.41;4986001;28;20045;-68
2023/08/23 10:20:37;;;;;;;5.38;1.92;;;;;;;24.50;52.98;101980.88;4985771;28;21081;-66
2023/08/23 10:23:16;;;;;;;4.22;1.60;;;;;;;24.48;53.39;101978.34;4986085;28;20038;-66
2023/08/23 10:25:43;;;;;;;5.70;1.48;;;;;;;24.51;53.13;101979.91;4987973;28;20048;-68
2023/08/23 10:28:18;;;;;;;2.90;1.30;;;;;;;24.51;53.17;101977.25;4989979;28;20149;-67
2023/08/23 10:30:46;;;;;;;4.13;1.70;;;;;;;24.49;53.31;101972.06;4990757;28;20044;-66
2023/08/23 10:33:13;;;;;;;6.80;1.50;;;;;;;24.52;53.31;101979.78;4989849;28;20044;-65
2023/08/23 10:35:40;;;;;;;5.82;1.42;;;;;;;24.51;53.31;101975.41;4990075;28;20088;-67
2023/08/23 10:38:07;;;;;;;6.20;1.80;;;;;;;24.53;53.74;101980.59;4989864;28;20037;-65
2023/08/23 10:40:33;;;;;;;5.72;1.70;;;;;;;24.53;53.78;101975.28;4989173;28;20027;-65
2023/08/23 10:43:04;;;;;;;5.88;1.50;;;;;;;24.51;53.88;101967.41;4989462;28;20030;-65
2023/08/23 10:45:47;;;;;;;3.85;1.60;;;;;;;24.51;53.59;101967.41;4989966;28;20030;-67
2023/08/23 10:48:13;;;;;;;4.20;1.55;;;;;;;24.56;53.58;101967.91;4989838;28;20129;-65
2023/08/23 10:50:39;;;;;;;3.28;1.50;;;;;;;24.54;53.73;101960.97;4989869;28;20109;-67
2023/08/23 10:53:04;;;;;;;5.10;1.58;;;;;;;24.53;53.88;101961.94;4989564;28;20034;-68
2023/08/23 10:55:30;;;;;;;3.97;1.70;;;;;;;24.54;53.80;101961.81;4989485;28;20097;-66
2023/08/23 10:57:55;;;;;;;3.85;1.80;;;;;;;24.56;53.54;101959.91;4989775;28;20045;-64
2023/08/23 11:00:21;;;;;;;4.93;1.40;;;;;;;24.58;53.64;101957.94;4991403;28;20498;-66
2023/08/23 11:02:46;;;;;;;4.80;1.65;;;;;;;24.57;53.68;101956.22;4990667;28;20130;-68
2023/08/23 11:05:12;;;;;;;4.85;1.80;;;;;;;24.56;53.98;101945.69;4989841;28;20395;-64
2023/08/23 11:07:37;;;;;;;4.82;1.45;;;;;;;24.55;54.32;101941.34;4989029;28;20088;-65
2023/08/23 11:10:03;;;;;;;5.43;1.42;;;;;;;24.56;54.08;101943.00;4990075;28;20066;-65
2023/08/23 11:12:28;;;;;;;4.07;1.40;;;;;;;24.56;54.05;101935.03;4989683;28;20046;-65
2023/08/23 11:14:55;;;;;;;3.08;1.35;;;;;;;24.56;53.72;101935.91;4989341;28;20049;-65
2023/08/23 11:17:21;;;;;;;3.10;1.40;;;;;;;24.56;53.72;101930.59;4989072;28;20037;-67
2023/08/23 11:19:46;;;;;;;3.70;1.60;;;;;;;24.57;53.88;101934.91;4990771;28;20026;-64